Time;durP1;ratioP1;P1;durP2;ratioP2;P2;SDS_P1;SDS_P2;PMS_P1;PMS_P2;Temp;Humidity;BMP_temperature;BMP_pressure;BME280_temperature;BME280_humidity;BME280_pressure;Samples;Min_cycle;Max_cycle;Signal;HPM_P1;HPM_P2
2023/09/04 00:00:22;;;;;;;4.03;2.40;;;20.70;37.70;;;;;;10450355;28;20689;-74
2023/09/04 00:05:26;;;;;;;2.30;2.20;;;20.60;37.80;;;;;;10450391;28;20231;-74
2023/09/04 00:10:29;;;;;;;2.57;2.30;;;20.60;38.20;;;;;;10450188;28;20312;-74
2023/09/04 00:15:33;;;;;;;2.50;2.30;;;20.60;37.90;;;;;;10449870;28;20744;-74
2023/09/04 00:20:37;;;;;;;2.10;2.00;;;20.60;37.70;;;;;;10449548;28;20237;-74
2023/09/04 00:25:41;;;;;;;2.47;2.10;;;20.50;37.90;;;;;;10449926;28;20625;-74
2023/09/04 00:30:44;;;;;;;2.40;2.20;;;20.40;37.70;;;;;;10449848;28;20255;-74
2023/09/04 00:35:49;;;;;;;2.30;2.10;;;20.40;37.90;;;;;;10449082;28;20254;-74
2023/09/04 00:40:52;;;;;;;2.30;2.10;;;20.30;38.10;;;;;;10448801;28;20221;-74
2023/09/04 00:45:55;;;;;;;2.83;2.10;;;20.20;37.90;;;;;;10448554;28;20235;-74
2023/09/04 00:51:00;;;;;;;2.20;2.10;;;20.20;38.00;;;;;;10448527;28;20228;-74
2023/09/04 00:56:04;;;;;;;2.20;2.10;;;20.10;38.50;;;;;;10448199;28;20229;-74
2023/09/04 01:01:07;;;;;;;2.40;2.20;;;20.00;38.40;;;;;;10444822;28;20236;-74
2023/09/04 01:06:12;;;;;;;3.87;2.00;;;19.90;38.30;;;;;;10445818;28;20782;-74
2023/09/04 01:11:33;;;;;;;2.77;2.10;;;19.90;38.50;;;;;;10447796;28;20709;-74
2023/09/04 01:16:37;;;;;;;1.90;1.80;;;19.90;38.80;;;;;;10447685;28;20225;-75
2023/09/04 01:21:42;;;;;;;2.37;2.17;;;19.90;38.20;;;;;;10447721;28;20252;-75
2023/09/04 01:26:53;;;;;;;1.73;1.63;;;19.80;38.50;;;;;;10447996;28;20235;-75
2023/09/04 01:32:00;;;;;;;2.00;1.90;;;19.70;38.80;;;;;;10447816;28;20312;-75
2023/09/04 01:37:06;;;;;;;2.23;1.57;;;19.60;38.90;;;;;;10447284;28;20266;-75
2023/09/04 01:42:09;;;;;;;2.57;1.93;;;19.60;39.00;;;;;;10447070;28;20259;-75
2023/09/04 01:47:12;;;;;;;2.07;1.97;;;19.60;38.80;;;;;;10446746;28;20239;-75
2023/09/04 01:52:17;;;;;;;2.00;1.90;;;19.50;38.60;;;;;;10447139;28;20237;-75
2023/09/04 01:57:20;;;;;;;2.10;1.90;;;19.50;38.90;;;;;;10447003;28;20233;-75
2023/09/04 02:02:23;;;;;;;3.17;2.30;;;19.50;38.70;;;;;;10446671;28;20742;-75
2023/09/04 02:07:28;;;;;;;2.17;2.00;;;19.40;38.70;;;;;;10446545;28;20290;-74
2023/09/04 02:12:31;;;;;;;1.80;1.70;;;19.40;38.90;;;;;;10446912;28;20303;-75
2023/09/04 02:17:35;;;;;;;1.67;1.57;;;19.30;38.70;;;;;;10446481;28;20664;-75
2023/09/04 02:22:40;;;;;;;2.63;1.63;;;19.30;38.90;;;;;;10446195;28;20243;-75
2023/09/04 02:27:43;;;;;;;3.07;1.67;;;19.30;39.10;;;;;;10446403;28;20575;-75
2023/09/04 02:32:47;;;;;;;2.60;2.40;;;19.20;38.80;;;;;;10446261;28;20644;-75
2023/09/04 02:37:52;;;;;;;2.23;2.00;;;19.20;39.10;;;;;;10446093;28;20240;-75
2023/09/04 02:42:55;;;;;;;2.30;1.87;;;19.10;39.00;;;;;;10445857;28;20225;-74
2023/09/04 02:47:58;;;;;;;1.70;1.20;;;19.10;38.70;;;;;;10445580;28;20709;-74
2023/09/04 02:53:04;;;;;;;1.33;1.33;;;19.00;38.70;;;;;;10445410;28;20259;-75
2023/09/04 02:58:07;;;;;;;1.60;1.50;;;18.90;39.30;;;;;;10446625;28;20251;-75
2023/09/04 03:03:10;;;;;;;1.70;1.60;;;18.80;39.00;;;;;;10453747;28;20256;-75
2023/09/04 03:08:15;;;;;;;2.10;1.77;;;18.80;39.10;;;;;;10453869;28;20244;-75
2023/09/04 03:13:19;;;;;;;2.30;2.10;;;18.70;39.70;;;;;;10453515;28;20255;-75
2023/09/04 03:18:22;;;;;;;2.13;1.93;;;18.70;39.40;;;;;;10453262;28;20274;-74
2023/09/04 03:23:27;;;;;;;3.33;2.40;;;18.60;39.40;;;;;;10453350;28;20260;-75
2023/09/04 03:28:30;;;;;;;3.23;2.57;;;18.60;39.80;;;;;;10452957;28;20650;-75
2023/09/04 03:33:33;;;;;;;3.57;2.67;;;18.60;39.30;;;;;;10452800;28;20282;-74
2023/09/04 03:38:37;;;;;;;2.63;2.27;;;18.50;39.30;;;;;;10452412;28;20224;-74
2023/09/04 03:43:41;;;;;;;3.50;3.20;;;18.40;39.70;;;;;;10451675;28;20564;-75
2023/09/04 03:48:44;;;;;;;2.47;2.37;;;18.40;39.70;;;;;;10451876;28;20275;-75
2023/09/04 03:53:48;;;;;;;3.23;2.93;;;18.40;39.70;;;;;;10451955;28;20270;-74
2023/09/04 03:58:51;;;;;;;3.20;2.97;;;18.30;39.90;;;;;;10451354;28;20239;-75
2023/09/04 04:03:55;;;;;;;3.70;3.40;;;18.30;39.80;;;;;;10451204;28;20228;-75
2023/09/04 04:09:00;;;;;;;4.30;4.00;;;18.30;40.00;;;;;;10451070;28;20225;-74
2023/09/04 04:14:03;;;;;;;5.07;4.57;;;18.40;40.30;;;;;;10450146;28;20260;-74
2023/09/04 04:19:06;;;;;;;5.20;4.80;;;18.40;40.10;;;;;;10450070;28;20900;-74
2023/09/04 04:24:11;;;;;;;5.70;5.20;;;18.40;40.00;;;;;;10450310;28;20256;-74
2023/09/04 04:29:14;;;;;;;6.00;5.50;;;18.30;40.00;;;;;;10449808;28;20239;-74
2023/09/04 04:34:17;;;;;;;6.17;5.57;;;18.30;39.90;;;;;;10449654;28;20233;-74
2023/09/04 04:39:22;;;;;;;6.00;5.50;;;18.20;39.70;;;;;;10449612;28;20241;-74
2023/09/04 04:44:25;;;;;;;6.17;5.40;;;18.20;40.20;;;;;;10449464;28;20229;-74
2023/09/04 04:49:28;;;;;;;5.77;5.27;;;18.10;40.10;;;;;;10449015;28;20629;-74
2023/09/04 04:54:33;;;;;;;5.70;5.30;;;18.10;40.10;;;;;;10449231;28;20865;-75
2023/09/04 04:59:37;;;;;;;7.00;6.37;;;18.10;40.40;;;;;;10449631;28;20321;-74
2023/09/04 05:04:44;;;;;;;6.90;6.20;;;18.10;40.50;;;;;;10449063;28;20316;-74
2023/09/04 05:09:52;;;;;;;7.03;6.47;;;18.10;40.40;;;;;;10448953;28;20233;-74
2023/09/04 05:14:56;;;;;;;6.33;5.83;;;18.10;41.00;;;;;;10447396;28;20225;-74
2023/09/04 05:19:59;;;;;;;6.10;5.60;;;18.10;40.40;;;;;;10446818;28;20689;-73
2023/09/04 05:25:04;;;;;;;5.10;4.80;;;18.10;40.60;;;;;;10445841;28;20247;-74
2023/09/04 05:30:08;;;;;;;4.93;4.53;;;18.20;41.10;;;;;;10446554;28;20248;-74
2023/09/04 05:35:11;;;;;;;4.43;4.07;;;18.20;40.90;;;;;;10447107;28;20229;-74
2023/09/04 05:40:20;;;;;;;4.30;4.00;;;18.20;40.80;;;;;;10445092;28;20981;-74
2023/09/04 05:45:24;;;;;;;4.90;4.50;;;18.20;41.30;;;;;;10447155;28;20247;-74
2023/09/04 05:50:27;;;;;;;5.37;4.87;;;18.20;41.10;;;;;;10447092;28;20232;-74
2023/09/04 05:55:31;;;;;;;5.73;5.20;;;18.20;41.30;;;;;;10446446;28;20327;-74
2023/09/04 06:00:35;;;;;;;5.10;4.57;;;18.20;41.90;;;;;;10444918;28;20235;-74
2023/09/04 06:05:38;;;;;;;5.10;4.70;;;18.30;41.70;;;;;;10444844;28;20308;-74
2023/09/04 06:10:43;;;;;;;5.30;4.80;;;18.30;41.80;;;;;;10445507;28;20307;-75
2023/09/04 06:15:46;;;;;;;5.30;4.90;;;18.30;42.30;;;;;;10446414;28;20304;-76
2023/09/04 06:20:51;;;;;;;5.20;4.90;;;18.40;42.10;;;;;;10446122;28;20233;-75
2023/09/04 06:25:55;;;;;;;5.63;5.13;;;18.50;42.90;;;;;;10446026;28;20236;-76
2023/09/04 06:30:59;;;;;;;5.30;4.80;;;18.50;42.70;;;;;;10445901;28;20225;-75
2023/09/04 06:36:03;;;;;;;5.47;5.00;;;18.60;42.20;;;;;;10465160;28;20312;-76
2023/09/04 06:41:08;;;;;;;5.90;5.50;;;18.60;42.30;;;;;;10494506;28;20259;-74
2023/09/04 06:46:11;;;;;;;6.43;5.97;;;18.70;43.00;;;;;;10487212;28;20224;-74
2023/09/04 06:51:15;;;;;;;6.10;5.50;;;18.70;42.70;;;;;;10488412;28;20232;-75
2023/09/04 06:56:20;;;;;;;6.27;5.80;;;18.80;42.90;;;;;;10486682;28;20314;-73
2023/09/04 07:01:23;;;;;;;6.17;5.57;;;18.80;43.60;;;;;;10487213;28;20228;-74
2023/09/04 07:06:26;;;;;;;6.10;5.60;;;18.90;43.30;;;;;;10493145;28;20297;-74
2023/09/04 07:11:31;;;;;;;5.73;5.23;;;19.00;43.70;;;;;;10492851;28;20236;-73
2023/09/04 07:16:37;;;;;;;7.10;5.50;;;19.10;44.50;;;;;;10493810;28;20308;-74
2023/09/04 07:21:52;;;;;;;5.10;4.70;;;19.20;44.10;;;;;;10493548;28;20224;-73
2023/09/04 07:26:57;;;;;;;6.07;4.43;;;19.30;44.00;;;;;;10491870;28;20216;-75
2023/09/04 07:32:01;;;;;;;4.27;3.97;;;19.50;44.50;;;;;;10490813;28;20689;-74
2023/09/04 07:37:04;;;;;;;5.20;4.80;;;19.60;44.30;;;;;;10491947;28;20224;-74
2023/09/04 07:42:09;;;;;;;5.10;4.70;;;19.80;44.50;;;;;;10491232;28;20310;-74
2023/09/04 07:47:12;;;;;;;4.63;4.27;;;20.10;44.70;;;;;;10491348;28;20232;-74
2023/09/04 07:52:15;;;;;;;4.87;4.47;;;20.30;44.50;;;;;;10492036;28;20327;-75
2023/09/04 07:57:20;;;;;;;5.30;4.90;;;20.60;44.60;;;;;;10492215;28;20232;-75
2023/09/04 08:02:23;;;;;;;5.30;4.80;;;20.90;44.30;;;;;;10492560;28;20307;-75
2023/09/04 08:07:26;;;;;;;4.73;4.33;;;21.20;44.20;;;;;;10491778;28;20756;-74
2023/09/04 08:12:31;;;;;;;6.13;4.50;;;21.50;43.80;;;;;;10491589;28;20224;-73
2023/09/04 08:17:34;;;;;;;4.93;4.63;;;21.70;43.50;;;;;;10491244;28;20311;-74
2023/09/04 08:22:37;;;;;;;4.40;4.00;;;21.90;43.10;;;;;;10491356;28;20232;-74
2023/09/04 08:27:42;;;;;;;4.60;4.30;;;22.20;43.30;;;;;;10491323;28;20232;-74
2023/09/04 08:32:45;;;;;;;4.90;4.50;;;22.40;42.60;;;;;;10490950;28;20230;-75
2023/09/04 08:37:49;;;;;;;4.40;4.10;;;22.60;42.50;;;;;;10490661;28;20232;-75
2023/09/04 08:42:55;;;;;;;3.83;3.53;;;22.90;42.40;;;;;;10490278;28;20303;-75
2023/09/04 08:48:02;;;;;;;4.20;3.90;;;23.20;42.20;;;;;;10489874;28;20234;-76
2023/09/04 08:53:05;;;;;;;4.53;4.13;;;23.40;41.70;;;;;;10486039;28;20298;-76
2023/09/04 08:58:10;;;;;;;4.23;3.93;;;23.60;41.90;;;;;;10447945;28;20243;-74
2023/09/04 09:03:14;;;;;;;4.20;3.90;;;23.90;41.20;;;;;;10448107;28;20243;-75
2023/09/04 09:08:20;;;;;;;4.20;3.90;;;24.20;41.30;;;;;;10448056;28;20233;-74
2023/09/04 09:13:25;;;;;;;4.20;3.90;;;24.40;40.70;;;;;;10449482;28;20332;-77
2023/09/04 09:18:36;;;;;;;4.77;3.43;;;24.70;40.60;;;;;;10462533;28;20228;-74
2023/09/04 09:23:40;;;;;;;3.83;3.53;;;24.90;39.40;;;;;;10444856;28;20233;-75
2023/09/04 09:28:45;;;;;;;3.93;3.63;;;25.10;40.30;;;;;;10445988;28;20257;-75
2023/09/04 09:33:49;;;;;;;4.07;3.77;;;25.20;39.50;;;;;;10444850;28;20709;-74
2023/09/04 09:38:55;;;;;;;3.67;3.47;;;25.40;38.60;;;;;;10461214;28;20270;-76
2023/09/04 09:44:03;;;;;;;3.50;3.30;;;25.50;37.80;;;;;;10458357;28;20766;-75
2023/09/04 09:49:07;;;;;;;3.73;3.43;;;25.60;37.70;;;;;;10456539;28;20349;-74
2023/09/04 09:54:12;;;;;;;3.90;3.60;;;25.70;38.10;;;;;;10492574;28;20238;-74
2023/09/04 09:59:18;;;;;;;3.77;3.50;;;25.70;37.70;;;;;;10468723;28;20278;-75
2023/09/04 10:04:22;;;;;;;3.33;3.13;;;25.80;37.10;;;;;;10475352;28;20700;-75
2023/09/04 10:09:29;;;;;;;4.43;3.37;;;26.00;37.10;;;;;;10465530;28;20232;-74
2023/09/04 10:14:39;;;;;;;3.40;3.20;;;26.00;36.10;;;;;;10470124;28;20228;-74
2023/09/04 10:19:44;;;;;;;3.27;2.97;;;26.20;36.30;;;;;;10481205;28;20231;-74
2023/09/04 10:24:56;;;;;;;3.30;3.10;;;26.30;36.80;;;;;;10460047;28;20312;-74
2023/09/04 10:30:06;;;;;;;3.13;2.93;;;26.50;35.00;;;;;;10463126;28;20789;-74
2023/09/04 10:35:09;;;;;;;3.60;3.40;;;26.50;34.40;;;;;;10456290;28;20260;-74
2023/09/04 10:40:13;;;;;;;3.27;3.07;;;26.60;35.90;;;;;;10457692;28;20316;-74
2023/09/04 10:45:19;;;;;;;2.97;2.77;;;26.70;35.00;;;;;;10457213;28;20778;-74
2023/09/04 10:50:30;;;;;;;3.20;3.00;;;26.80;33.90;;;;;;10456744;28;20324;-74
2023/09/04 10:55:35;;;;;;;3.40;3.10;;;26.90;34.00;;;;;;10461266;28;20322;-74
2023/09/04 11:00:41;;;;;;;3.10;2.90;;;27.10;34.50;;;;;;10457807;28;20316;-75
2023/09/04 11:06:10;;;;;;;3.70;3.40;;;27.20;34.00;;;;;;10465135;28;20224;-74
2023/09/04 11:11:14;;;;;;;3.47;3.17;;;27.20;33.50;;;;;;10464236;28;20263;-73
2023/09/04 11:16:19;;;;;;;3.40;3.20;;;27.30;34.10;;;;;;10474466;28;20229;-74
2023/09/04 11:21:22;;;;;;;3.50;3.30;;;27.30;32.70;;;;;;10474494;28;20243;-74
2023/09/04 11:26:26;;;;;;;3.50;3.20;;;27.40;33.00;;;;;;10476331;28;20330;-74
2023/09/04 11:31:32;;;;;;;3.87;3.10;;;27.40;33.20;;;;;;10472998;28;20582;-75
2023/09/04 11:36:38;;;;;;;3.27;3.07;;;27.60;31.80;;;;;;10478231;28;20711;-75
2023/09/04 11:41:42;;;;;;;3.40;3.10;;;27.60;30.90;;;;;;10463250;28;20220;-74
2023/09/04 11:46:48;;;;;;;3.30;3.10;;;27.60;32.30;;;;;;10467338;28;20252;-74
2023/09/04 11:51:51;;;;;;;3.30;3.10;;;27.70;31.10;;;;;;10486377;28;20593;-74
2023/09/04 11:56:54;;;;;;;3.37;3.10;;;27.80;31.80;;;;;;10460375;28;20213;-74
2023/09/04 12:01:59;;;;;;;3.33;3.13;;;27.80;31.60;;;;;;10473920;28;20764;-73
2023/09/04 12:07:04;;;;;;;3.47;3.23;;;27.90;30.50;;;;;;10471774;28;20269;-74
2023/09/04 12:12:08;;;;;;;3.10;2.90;;;27.90;30.50;;;;;;10469084;28;20692;-73
2023/09/04 12:17:12;;;;;;;3.33;2.90;;;27.90;30.20;;;;;;10472333;28;20254;-74
2023/09/04 12:22:16;;;;;;;3.10;2.90;;;27.90;30.00;;;;;;10466703;28;21021;-74
2023/09/04 12:27:19;;;;;;;3.13;2.93;;;27.90;30.20;;;;;;10479346;28;20320;-73
2023/09/04 12:32:25;;;;;;;3.00;2.80;;;27.90;30.10;;;;;;10472638;28;20225;-74
2023/09/04 12:37:30;;;;;;;3.30;3.10;;;27.90;30.10;;;;;;10466035;28;20227;-74
2023/09/04 12:42:34;;;;;;;3.20;2.77;;;27.90;29.80;;;;;;10468593;28;20227;-74
2023/09/04 12:47:38;;;;;;;3.40;3.20;;;27.90;30.20;;;;;;10467057;28;20298;-73
2023/09/04 12:52:46;;;;;;;3.30;3.10;;;28.00;29.70;;;;;;10479565;28;21151;-74
2023/09/04 12:57:49;;;;;;;2.83;2.63;;;27.90;30.10;;;;;;10472030;28;20623;-74
2023/09/04 13:02:54;;;;;;;3.23;2.90;;;27.90;29.20;;;;;;10466475;28;20225;-73
2023/09/04 13:07:57;;;;;;;3.13;2.93;;;28.00;29.60;;;;;;10466234;28;20220;-74
2023/09/04 13:13:01;;;;;;;3.30;3.10;;;28.00;30.20;;;;;;10472096;28;20220;-74
2023/09/04 13:18:06;;;;;;;3.40;3.10;;;28.00;30.20;;;;;;10471749;28;20298;-73
2023/09/04 13:23:09;;;;;;;3.40;3.10;;;28.00;29.30;;;;;;10467706;28;20720;-73
2023/09/04 13:28:12;;;;;;;3.30;3.00;;;28.00;29.60;;;;;;10465066;28;20225;-74
2023/09/04 13:33:16;;;;;;;3.70;3.37;;;28.10;29.60;;;;;;10470921;28;20622;-72
2023/09/04 13:38:20;;;;;;;3.27;3.07;;;28.00;29.30;;;;;;10455943;28;20231;-73
2023/09/04 13:43:23;;;;;;;3.20;3.00;;;28.00;29.40;;;;;;10465985;28;20273;-73
2023/09/04 13:48:31;;;;;;;3.50;3.30;;;28.10;29.40;;;;;;10468112;28;20276;-73
2023/09/04 13:53:35;;;;;;;3.00;2.80;;;28.10;29.00;;;;;;10462179;28;20669;-73
2023/09/04 13:58:38;;;;;;;3.57;3.27;;;28.10;28.90;;;;;;10462590;28;20224;-73
2023/09/04 14:03:43;;;;;;;3.30;3.10;;;28.20;29.30;;;;;;10458151;28;21065;-73
2023/09/04 14:08:46;;;;;;;3.30;3.10;;;28.20;28.50;;;;;;10458657;28;20228;-72
2023/09/04 14:13:49;;;;;;;3.27;3.07;;;28.20;28.80;;;;;;10462436;28;20246;-72
2023/09/04 14:18:54;;;;;;;3.03;2.83;;;28.20;28.60;;;;;;10454273;28;20732;-72
2023/09/04 14:24:07;;;;;;;3.87;3.30;;;28.30;28.10;;;;;;10454667;28;20315;-72
2023/09/04 14:29:10;;;;;;;3.30;3.00;;;28.30;28.20;;;;;;10452778;28;20243;-72
2023/09/04 14:34:15;;;;;;;3.20;2.90;;;28.30;28.20;;;;;;10461002;28;20506;-72
2023/09/04 14:39:18;;;;;;;3.20;3.00;;;28.30;27.60;;;;;;10463740;28;20228;-73
2023/09/04 14:44:23;;;;;;;3.30;3.10;;;28.30;28.20;;;;;;10456761;28;20231;-72
2023/09/04 14:49:27;;;;;;;3.40;3.20;;;28.40;28.30;;;;;;10467156;28;20315;-73
2023/09/04 14:54:30;;;;;;;3.40;3.10;;;28.30;27.80;;;;;;10464496;28;20238;-72
2023/09/04 14:59:33;;;;;;;3.37;3.17;;;28.40;28.40;;;;;;10462296;28;20232;-73
2023/09/04 15:04:39;;;;;;;3.60;3.30;;;28.40;28.30;;;;;;10469294;28;20232;-73
2023/09/04 15:09:43;;;;;;;5.73;3.33;;;28.40;27.80;;;;;;10471899;28;20223;-73
2023/09/04 15:14:46;;;;;;;3.70;3.40;;;28.40;27.90;;;;;;10465536;28;20278;-72
2023/09/04 15:19:51;;;;;;;3.13;2.93;;;28.40;27.80;;;;;;10469828;28;20240;-72
2023/09/04 15:24:54;;;;;;;3.37;3.17;;;28.30;27.30;;;;;;10469865;28;20228;-72
2023/09/04 15:29:57;;;;;;;3.07;2.87;;;28.30;27.40;;;;;;10473696;28;20658;-72
2023/09/04 15:35:02;;;;;;;2.90;2.70;;;28.30;27.40;;;;;;10470094;28;20658;-71
2023/09/04 15:40:07;;;;;;;3.20;3.00;;;28.30;27.00;;;;;;10467920;28;20251;-73
2023/09/04 15:45:11;;;;;;;3.30;3.00;;;28.30;27.20;;;;;;10464368;28;20949;-73
2023/09/04 15:50:16;;;;;;;2.87;2.73;;;28.30;27.10;;;;;;10464993;28;20228;-73
2023/09/04 15:55:19;;;;;;;3.10;2.90;;;28.30;26.70;;;;;;10461406;28;20224;-72
2023/09/04 16:00:22;;;;;;;3.60;3.30;;;28.30;26.80;;;;;;10460909;28;20225;-73
2023/09/04 16:05:27;;;;;;;3.20;3.00;;;28.20;26.70;;;;;;10464594;28;20232;-73
2023/09/04 16:10:30;;;;;;;3.40;3.10;;;28.20;26.60;;;;;;10463550;28;20229;-73
2023/09/04 16:15:33;;;;;;;3.30;3.10;;;28.20;26.70;;;;;;10477162;28;20227;-72
2023/09/04 16:20:42;;;;;;;3.40;3.10;;;28.20;26.40;;;;;;10465251;28;20303;-73
2023/09/04 16:25:45;;;;;;;3.00;2.80;;;28.20;25.60;;;;;;10460887;28;20315;-73
2023/09/04 16:30:50;;;;;;;3.10;2.80;;;28.20;26.50;;;;;;10472197;28;20687;-73
2023/09/04 16:35:57;;;;;;;2.80;2.60;;;28.20;26.70;;;;;;10468690;28;20217;-73
2023/09/04 16:41:00;;;;;;;3.10;2.90;;;28.20;26.50;;;;;;10467710;28;20284;-73
2023/09/04 16:46:03;;;;;;;3.13;2.80;;;28.20;26.50;;;;;;10466677;28;20220;-74
2023/09/04 16:51:08;;;;;;;3.10;2.90;;;28.20;26.40;;;;;;10469335;28;20263;-73
2023/09/04 16:56:11;;;;;;;2.77;2.50;;;28.10;26.20;;;;;;10467288;28;20328;-73
2023/09/04 17:01:14;;;;;;;2.67;2.47;;;28.10;26.30;;;;;;10453742;28;20257;-73
2023/09/04 17:06:20;;;;;;;2.77;2.53;;;28.00;26.30;;;;;;10461237;28;20515;-73
2023/09/04 17:11:23;;;;;;;2.57;2.47;;;28.00;26.10;;;;;;10472635;28;20235;-73
2023/09/04 17:16:26;;;;;;;3.33;3.10;;;27.90;26.40;;;;;;10457765;28;20243;-73
2023/09/04 17:21:31;;;;;;;3.30;3.10;;;27.80;26.80;;;;;;10462994;28;20308;-73
2023/09/04 17:26:35;;;;;;;3.47;3.17;;;27.70;26.60;;;;;;10463537;28;20232;-73
2023/09/04 17:31:38;;;;;;;3.07;2.87;;;27.50;26.50;;;;;;10460148;28;20596;-74
2023/09/04 17:36:43;;;;;;;3.27;2.97;;;27.40;26.70;;;;;;10452618;28;20223;-71
2023/09/04 17:41:46;;;;;;;2.80;2.60;;;27.20;26.50;;;;;;10452394;28;20221;-72
2023/09/04 17:46:50;;;;;;;2.97;2.73;;;27.10;26.80;;;;;;10455627;28;20217;-71
2023/09/04 17:51:54;;;;;;;3.40;3.10;;;27.00;27.20;;;;;;10449633;28;20250;-71
2023/09/04 17:56:59;;;;;;;3.10;2.90;;;26.80;27.80;;;;;;10447245;28;20228;-71
2023/09/04 18:02:02;;;;;;;3.07;2.60;;;26.70;27.60;;;;;;10441926;28;20231;-71
2023/09/04 18:07:07;;;;;;;3.00;2.80;;;26.60;27.70;;;;;;10449506;28;20709;-71
2023/09/04 18:12:10;;;;;;;2.70;2.50;;;26.60;27.90;;;;;;10447306;28;20318;-71
2023/09/04 18:17:14;;;;;;;2.80;2.50;;;26.40;27.80;;;;;;10453884;28;20233;-71
2023/09/04 18:22:18;;;;;;;3.17;2.90;;;26.30;28.10;;;;;;10451041;28;20714;-71
2023/09/04 18:27:22;;;;;;;3.10;2.80;;;26.20;28.30;;;;;;10447626;28;21946;-71
2023/09/04 18:32:25;;;;;;;3.50;2.50;;;26.10;28.50;;;;;;10458241;28;20228;-71
2023/09/04 18:37:29;;;;;;;4.73;3.20;;;26.00;28.60;;;;;;10451218;28;20317;-71
2023/09/04 18:42:33;;;;;;;3.10;2.80;;;25.80;29.10;;;;;;10462610;28;20830;-71
2023/09/04 18:47:36;;;;;;;3.70;3.10;;;25.70;29.00;;;;;;10457042;28;20264;-72
2023/09/04 18:52:40;;;;;;;3.23;3.03;;;25.60;29.00;;;;;;10460390;28;20231;-72
2023/09/04 18:57:44;;;;;;;3.33;2.87;;;25.40;28.90;;;;;;10456490;28;20257;-72
2023/09/04 19:02:47;;;;;;;3.70;3.10;;;25.30;28.80;;;;;;10451978;28;20682;-72
2023/09/04 19:07:52;;;;;;;3.47;3.17;;;25.20;28.80;;;;;;10456953;28;20286;-72
2023/09/04 19:12:55;;;;;;;3.60;3.30;;;25.00;29.00;;;;;;10459380;28;20224;-72
2023/09/04 19:17:58;;;;;;;4.63;3.67;;;24.70;29.20;;;;;;10460144;28;20233;-72
2023/09/04 19:23:03;;;;;;;3.77;3.47;;;24.50;29.40;;;;;;10462945;28;20681;-72
2023/09/04 19:28:07;;;;;;;3.93;3.53;;;24.30;29.50;;;;;;10458928;28;20233;-71
2023/09/04 19:33:10;;;;;;;3.47;3.17;;;24.10;29.50;;;;;;10462039;28;20241;-72
2023/09/04 19:38:15;;;;;;;2.93;2.73;;;23.90;29.70;;;;;;10462302;28;20236;-71
2023/09/04 19:43:18;;;;;;;3.40;3.20;;;23.80;29.90;;;;;;10457104;28;20591;-71
2023/09/04 19:48:21;;;;;;;4.63;3.40;;;23.70;29.90;;;;;;10451690;28;20608;-72
2023/09/04 19:53:26;;;;;;;3.73;3.43;;;23.60;30.00;;;;;;10459435;28;21034;-72
2023/09/04 19:58:29;;;;;;;3.30;3.07;;;23.50;30.00;;;;;;10461583;28;20236;-71
2023/09/04 20:03:34;;;;;;;3.30;3.00;;;23.40;29.90;;;;;;10460271;28;20216;-71
2023/09/04 20:08:40;;;;;;;3.53;3.23;;;23.20;29.90;;;;;;10458936;28;20230;-71
2023/09/04 20:13:46;;;;;;;3.13;2.93;;;23.10;30.20;;;;;;10456873;28;20733;-71
2023/09/04 20:18:49;;;;;;;3.57;3.27;;;22.90;30.20;;;;;;10444631;28;20552;-72
2023/09/04 20:23:59;;;;;;;3.27;3.07;;;22.70;30.60;;;;;;10448810;28;20256;-72
2023/09/04 20:29:03;;;;;;;3.63;3.33;;;22.70;31.10;;;;;;10449620;28;20224;-72
2023/09/04 20:34:06;;;;;;;3.37;3.13;;;22.70;30.90;;;;;;10451474;28;21068;-72
2023/09/04 20:39:11;;;;;;;4.20;3.20;;;22.70;30.90;;;;;;10458110;28;20316;-72
2023/09/04 20:44:14;;;;;;;3.67;3.47;;;22.70;31.30;;;;;;10456260;28;20239;-72
2023/09/04 20:49:17;;;;;;;3.60;3.30;;;22.60;31.00;;;;;;10456084;28;20236;-71
2023/09/04 20:54:22;;;;;;;3.77;3.47;;;22.50;31.10;;;;;;10451512;28;20226;-72
2023/09/04 20:59:26;;;;;;;3.43;2.87;;;22.40;31.50;;;;;;10458530;28;20234;-72
2023/09/04 21:04:29;;;;;;;3.50;3.20;;;22.40;31.40;;;;;;10448846;28;20256;-72
2023/09/04 23:23:08;;;;;;;3.50;3.20;;;20.40;33.70;;;;;;10445771;28;20237;-72
2023/09/04 23:28:11;;;;;;;3.63;3.33;;;20.30;33.40;;;;;;10457723;28;20237;-72
2023/09/04 23:33:25;;;;;;;3.03;2.83;;;20.30;33.50;;;;;;10454818;28;20286;-72
2023/09/04 23:38:50;;;;;;;3.43;3.13;;;20.30;33.90;;;;;;10449512;28;20795;-72
2023/09/04 23:49:16;;;;;;;3.20;2.80;;;20.20;33.80;;;;;;10448737;28;20877;-72
2023/09/04 23:54:19;;;;;;;2.83;2.60;;;20.20;34.20;;;;;;10457258;28;20313;-72
2023/09/04 23:59:22;;;;;;;2.90;2.70;;;20.20;33.80;;;;;;10456803;28;20237;-72
